Terminal Aerodrome Forecast
Issued by NWS

Home | Current Version | Previous Version | Graphics & Text | Print | Product List | Glossary Off
Versions: 1 2 3 4 5 6 7 8 9 10 11 12 13 14 15 16 17 18 19 20 21 22 23 24 25 26 27 28 29 30 31 32 33 34 35 36 37 38 39 40

000
FTUS43 KDDC 220532
TAFHYS
TAF
KHYS 220532Z 2206/2306 13006KT P6SM BKN040
     FM220900 15011KT 4SM -SHRA OVC015
     FM221200 15011KT 3SM -SHRA BR OVC007
      TEMPO 2215/2218 2SM -SHRA BR OVC003
     FM222100 17016G23KT P6SM OVC015=

USA.gov is the U.S. government's official web portal to all federal, state and local government web resources and services.